sensor_id;sensor_type;location;lat;lon;timestamp;P1;durP1;ratioP1;P2;durP2;ratioP2
20910;SDS011;10615;42.702;23.314;2023-07-29T00:00:42;6.18;;;2.72;;
20910;SDS011;10615;42.702;23.314;2023-07-29T00:01:43;3.03;;;2.60;;
20910;SDS011;10615;42.702;23.314;2023-07-29T00:02:43;8.57;;;3.50;;
20910;SDS011;10615;42.702;23.314;2023-07-29T00:03:44;5.28;;;2.40;;
20910;SDS011;10615;42.702;23.314;2023-07-29T00:04:45;4.40;;;2.80;;
20910;SDS011;10615;42.702;23.314;2023-07-29T00:05:46;3.90;;;3.30;;
20910;SDS011;10615;42.702;23.314;2023-07-29T00:06:48;4.00;;;2.40;;
20910;SDS011;10615;42.702;23.314;2023-07-29T00:07:48;4.45;;;2.50;;
20910;SDS011;10615;42.702;23.314;2023-07-29T00:08:49;5.47;;;2.80;;
20910;SDS011;10615;42.702;23.314;2023-07-29T00:09:49;3.83;;;2.80;;
20910;SDS011;10615;42.702;23.314;2023-07-29T00:10:50;6.78;;;3.10;;
20910;SDS011;10615;42.702;23.314;2023-07-29T00:11:51;3.97;;;2.92;;
20910;SDS011;10615;42.702;23.314;2023-07-29T00:12:51;4.22;;;2.58;;
20910;SDS011;10615;42.702;23.314;2023-07-29T00:13:52;3.00;;;2.55;;
20910;SDS011;10615;42.702;23.314;2023-07-29T00:14:53;3.00;;;2.70;;
20910;SDS011;10615;42.702;23.314;2023-07-29T00:15:54;4.43;;;2.72;;
20910;SDS011;10615;42.702;23.314;2023-07-29T00:16:55;5.43;;;2.92;;
20910;SDS011;10615;42.702;23.314;2023-07-29T00:17:56;4.60;;;2.90;;
20910;SDS011;10615;42.702;23.314;2023-07-29T00:18:57;6.90;;;2.80;;
20910;SDS011;10615;42.702;23.314;2023-07-29T00:19:58;4.53;;;2.90;;
20910;SDS011;10615;42.702;23.314;2023-07-29T00:20:58;5.00;;;3.03;;
20910;SDS011;10615;42.702;23.314;2023-07-29T00:21:59;3.90;;;2.72;;
20910;SDS011;10615;42.702;23.314;2023-07-29T00:23:00;4.05;;;3.13;;
20910;SDS011;10615;42.702;23.314;2023-07-29T00:24:01;4.57;;;3.20;;
20910;SDS011;10615;42.702;23.314;2023-07-29T00:25:02;5.53;;;3.00;;
20910;SDS011;10615;42.702;23.314;2023-07-29T00:26:03;6.25;;;2.95;;
20910;SDS011;10615;42.702;23.314;2023-07-29T00:27:03;5.05;;;3.15;;
20910;SDS011;10615;42.702;23.314;2023-07-29T00:28:04;4.85;;;3.05;;
20910;SDS011;10615;42.702;23.314;2023-07-29T00:29:05;7.13;;;3.05;;
20910;SDS011;10615;42.702;23.314;2023-07-29T00:30:06;3.75;;;2.90;;
20910;SDS011;10615;42.702;23.314;2023-07-29T00:31:07;4.15;;;3.05;;
20910;SDS011;10615;42.702;23.314;2023-07-29T00:32:07;3.95;;;2.80;;
20910;SDS011;10615;42.702;23.314;2023-07-29T00:33:08;7.30;;;3.28;;
20910;SDS011;10615;42.702;23.314;2023-07-29T00:34:09;7.47;;;2.97;;
20910;SDS011;10615;42.702;23.314;2023-07-29T00:35:09;3.95;;;2.75;;
20910;SDS011;10615;42.702;23.314;2023-07-29T00:36:10;4.95;;;2.92;;
20910;SDS011;10615;42.702;23.314;2023-07-29T00:37:11;4.57;;;3.30;;
20910;SDS011;10615;42.702;23.314;2023-07-29T00:38:12;3.20;;;2.60;;
20910;SDS011;10615;42.702;23.314;2023-07-29T00:39:13;3.50;;;3.05;;
20910;SDS011;10615;42.702;23.314;2023-07-29T00:40:20;3.90;;;3.13;;
20910;SDS011;10615;42.702;23.314;2023-07-29T00:41:21;2.85;;;2.38;;
20910;SDS011;10615;42.702;23.314;2023-07-29T00:42:23;3.15;;;2.78;;
20910;SDS011;10615;42.702;23.314;2023-07-29T00:43:24;3.67;;;2.78;;
20910;SDS011;10615;42.702;23.314;2023-07-29T00:44:25;3.50;;;2.85;;
20910;SDS011;10615;42.702;23.314;2023-07-29T00:45:26;3.25;;;2.60;;
20910;SDS011;10615;42.702;23.314;2023-07-29T00:46:28;3.08;;;2.78;;
20910;SDS011;10615;42.702;23.314;2023-07-29T00:47:29;3.53;;;2.45;;
20910;SDS011;10615;42.702;23.314;2023-07-29T00:48:30;3.83;;;2.47;;
20910;SDS011;10615;42.702;23.314;2023-07-29T00:49:31;3.03;;;2.70;;
20910;SDS011;10615;42.702;23.314;2023-07-29T00:50:32;4.53;;;2.97;;
20910;SDS011;10615;42.702;23.314;2023-07-29T00:51:33;3.97;;;2.88;;
20910;SDS011;10615;42.702;23.314;2023-07-29T00:52:33;3.47;;;2.72;;
20910;SDS011;10615;42.702;23.314;2023-07-29T00:53:34;3.95;;;2.80;;
20910;SDS011;10615;42.702;23.314;2023-07-29T00:54:35;3.60;;;2.50;;
20910;SDS011;10615;42.702;23.314;2023-07-29T00:55:36;4.30;;;2.67;;
20910;SDS011;10615;42.702;23.314;2023-07-29T00:56:37;3.25;;;2.88;;
20910;SDS011;10615;42.702;23.314;2023-07-29T00:57:38;4.03;;;2.42;;
20910;SDS011;10615;42.702;23.314;2023-07-29T00:58:40;3.08;;;2.55;;
20910;SDS011;10615;42.702;23.314;2023-07-29T00:59:41;5.65;;;2.88;;
20910;SDS011;10615;42.702;23.314;2023-07-29T01:00:42;3.63;;;2.63;;
20910;SDS011;10615;42.702;23.314;2023-07-29T01:01:42;4.53;;;2.78;;
20910;SDS011;10615;42.702;23.314;2023-07-29T01:02:43;4.35;;;3.25;;
20910;SDS011;10615;42.702;23.314;2023-07-29T01:03:44;3.70;;;2.83;;
20910;SDS011;10615;42.702;23.314;2023-07-29T01:04:45;3.20;;;2.90;;
20910;SDS011;10615;42.702;23.314;2023-07-29T01:08:21;5.38;;;2.92;;
20910;SDS011;10615;42.702;23.314;2023-07-29T01:10:10;4.03;;;3.05;;
20910;SDS011;10615;42.702;23.314;2023-07-29T01:10:58;5.85;;;3.00;;
20910;SDS011;10615;42.702;23.314;2023-07-29T01:14:05;3.35;;;2.90;;
20910;SDS011;10615;42.702;23.314;2023-07-29T01:15:13;4.85;;;3.10;;
20910;SDS011;10615;42.702;23.314;2023-07-29T01:16:51;2.80;;;2.58;;
20910;SDS011;10615;42.702;23.314;2023-07-29T01:17:54;2.92;;;2.63;;
20910;SDS011;10615;42.702;23.314;2023-07-29T01:18:59;4.75;;;2.95;;
20910;SDS011;10615;42.702;23.314;2023-07-29T01:20:10;4.80;;;3.00;;
20910;SDS011;10615;42.702;23.314;2023-07-29T01:22:16;4.60;;;2.97;;
20910;SDS011;10615;42.702;23.314;2023-07-29T01:23:23;4.63;;;2.72;;
20910;SDS011;10615;42.702;23.314;2023-07-29T01:24:24;3.63;;;2.72;;
20910;SDS011;10615;42.702;23.314;2023-07-29T01:25:25;4.53;;;3.17;;
20910;SDS011;10615;42.702;23.314;2023-07-29T01:26:25;4.30;;;3.20;;
20910;SDS011;10615;42.702;23.314;2023-07-29T01:27:28;6.93;;;3.17;;
20910;SDS011;10615;42.702;23.314;2023-07-29T01:28:29;4.60;;;3.10;;
20910;SDS011;10615;42.702;23.314;2023-07-29T01:29:31;3.90;;;2.67;;
20910;SDS011;10615;42.702;23.314;2023-07-29T01:30:38;3.63;;;2.75;;
20910;SDS011;10615;42.702;23.314;2023-07-29T01:31:43;3.92;;;2.85;;
20910;SDS011;10615;42.702;23.314;2023-07-29T01:32:59;3.00;;;2.70;;
20910;SDS011;10615;42.702;23.314;2023-07-29T01:34:27;2.95;;;2.72;;
20910;SDS011;10615;42.702;23.314;2023-07-29T01:35:51;5.13;;;2.78;;
20910;SDS011;10615;42.702;23.314;2023-07-29T01:36:57;4.32;;;2.95;;
20910;SDS011;10615;42.702;23.314;2023-07-29T01:38:01;3.33;;;2.70;;
20910;SDS011;10615;42.702;23.314;2023-07-29T01:39:23;3.15;;;2.75;;
20910;SDS011;10615;42.702;23.314;2023-07-29T01:40:27;4.38;;;2.67;;
20910;SDS011;10615;42.702;23.314;2023-07-29T01:41:28;2.90;;;2.60;;
20910;SDS011;10615;42.702;23.314;2023-07-29T01:42:29;4.90;;;2.75;;
20910;SDS011;10615;42.702;23.314;2023-07-29T01:43:31;4.57;;;2.67;;
20910;SDS011;10615;42.702;23.314;2023-07-29T01:44:32;3.95;;;3.00;;
20910;SDS011;10615;42.702;23.314;2023-07-29T01:45:34;3.40;;;2.65;;
20910;SDS011;10615;42.702;23.314;2023-07-29T01:46:38;3.70;;;2.78;;
20910;SDS011;10615;42.702;23.314;2023-07-29T01:47:38;3.97;;;3.10;;
20910;SDS011;10615;42.702;23.314;2023-07-29T01:48:41;4.35;;;3.00;;
20910;SDS011;10615;42.702;23.314;2023-07-29T01:49:42;4.45;;;2.83;;
20910;SDS011;10615;42.702;23.314;2023-07-29T01:50:43;5.22;;;3.00;;
20910;SDS011;10615;42.702;23.314;2023-07-29T01:51:43;4.93;;;3.33;;
20910;SDS011;10615;42.702;23.314;2023-07-29T01:52:44;3.40;;;3.10;;
20910;SDS011;10615;42.702;23.314;2023-07-29T01:53:45;3.72;;;3.35;;
20910;SDS011;10615;42.702;23.314;2023-07-29T01:54:45;4.38;;;3.20;;
20910;SDS011;10615;42.702;23.314;2023-07-29T01:55:46;4.95;;;3.10;;
20910;SDS011;10615;42.702;23.314;2023-07-29T01:56:47;4.28;;;3.05;;
20910;SDS011;10615;42.702;23.314;2023-07-29T01:57:47;3.70;;;3.10;;
20910;SDS011;10615;42.702;23.314;2023-07-29T01:58:48;3.42;;;3.08;;
20910;SDS011;10615;42.702;23.314;2023-07-29T01:59:49;3.92;;;3.33;;
20910;SDS011;10615;42.702;23.314;2023-07-29T02:00:50;4.43;;;3.28;;
20910;SDS011;10615;42.702;23.314;2023-07-29T02:01:51;4.30;;;3.13;;
20910;SDS011;10615;42.702;23.314;2023-07-29T02:02:52;3.72;;;3.05;;
20910;SDS011;10615;42.702;23.314;2023-07-29T02:03:52;5.50;;;3.20;;
20910;SDS011;10615;42.702;23.314;2023-07-29T02:04:55;3.25;;;2.95;;
20910;SDS011;10615;42.702;23.314;2023-07-29T02:05:55;5.28;;;3.35;;
20910;SDS011;10615;42.702;23.314;2023-07-29T02:06:56;4.05;;;3.42;;
20910;SDS011;10615;42.702;23.314;2023-07-29T02:07:57;4.85;;;3.45;;
20910;SDS011;10615;42.702;23.314;2023-07-29T02:08:57;5.78;;;3.40;;
20910;SDS011;10615;42.702;23.314;2023-07-29T02:09:58;5.38;;;3.17;;
20910;SDS011;10615;42.702;23.314;2023-07-29T02:10:59;5.60;;;3.05;;
20910;SDS011;10615;42.702;23.314;2023-07-29T02:12:00;5.57;;;3.10;;
20910;SDS011;10615;42.702;23.314;2023-07-29T02:13:00;4.15;;;3.15;;
20910;SDS011;10615;42.702;23.314;2023-07-29T02:14:01;3.53;;;3.03;;
20910;SDS011;10615;42.702;23.314;2023-07-29T02:15:02;5.43;;;3.10;;
20910;SDS011;10615;42.702;23.314;2023-07-29T02:16:03;4.10;;;3.50;;
20910;SDS011;10615;42.702;23.314;2023-07-29T02:17:04;4.70;;;3.50;;
20910;SDS011;10615;42.702;23.314;2023-07-29T02:18:05;4.38;;;3.35;;
20910;SDS011;10615;42.702;23.314;2023-07-29T02:19:07;5.15;;;2.95;;
20910;SDS011;10615;42.702;23.314;2023-07-29T02:20:08;5.22;;;3.00;;
20910;SDS011;10615;42.702;23.314;2023-07-29T02:21:10;5.82;;;3.40;;
20910;SDS011;10615;42.702;23.314;2023-07-29T02:22:13;3.83;;;2.92;;
20910;SDS011;10615;42.702;23.314;2023-07-29T02:23:14;6.10;;;3.08;;
20910;SDS011;10615;42.702;23.314;2023-07-29T02:24:17;6.40;;;3.10;;
20910;SDS011;10615;42.702;23.314;2023-07-29T02:25:17;3.10;;;2.60;;
20910;SDS011;10615;42.702;23.314;2023-07-29T02:26:18;3.30;;;3.00;;
20910;SDS011;10615;42.702;23.314;2023-07-29T02:27:19;5.82;;;3.30;;
20910;SDS011;10615;42.702;23.314;2023-07-29T02:28:19;5.13;;;3.08;;
20910;SDS011;10615;42.702;23.314;2023-07-29T02:29:20;5.10;;;3.10;;
20910;SDS011;10615;42.702;23.314;2023-07-29T02:30:21;4.93;;;2.80;;
20910;SDS011;10615;42.702;23.314;2023-07-29T02:31:23;4.85;;;2.90;;
20910;SDS011;10615;42.702;23.314;2023-07-29T02:32:25;3.97;;;2.85;;
20910;SDS011;10615;42.702;23.314;2023-07-29T02:33:25;4.78;;;2.70;;
20910;SDS011;10615;42.702;23.314;2023-07-29T02:34:26;3.65;;;2.90;;
20910;SDS011;10615;42.702;23.314;2023-07-29T02:35:27;3.22;;;2.85;;
20910;SDS011;10615;42.702;23.314;2023-07-29T02:36:28;4.45;;;3.00;;
20910;SDS011;10615;42.702;23.314;2023-07-29T02:37:28;4.57;;;2.85;;
20910;SDS011;10615;42.702;23.314;2023-07-29T02:38:29;3.72;;;2.88;;
20910;SDS011;10615;42.702;23.314;2023-07-29T02:39:30;3.33;;;2.80;;
20910;SDS011;10615;42.702;23.314;2023-07-29T02:40:31;4.07;;;3.15;;
20910;SDS011;10615;42.702;23.314;2023-07-29T02:41:31;5.95;;;3.22;;
20910;SDS011;10615;42.702;23.314;2023-07-29T02:42:32;3.90;;;2.90;;
20910;SDS011;10615;42.702;23.314;2023-07-29T02:43:33;4.47;;;3.17;;
20910;SDS011;10615;42.702;23.314;2023-07-29T02:44:33;4.75;;;2.97;;
20910;SDS011;10615;42.702;23.314;2023-07-29T02:45:34;5.43;;;2.88;;
20910;SDS011;10615;42.702;23.314;2023-07-29T02:46:35;4.78;;;3.03;;
20910;SDS011;10615;42.702;23.314;2023-07-29T02:47:36;4.75;;;2.92;;
20910;SDS011;10615;42.702;23.314;2023-07-29T02:48:37;6.65;;;3.40;;
20910;SDS011;10615;42.702;23.314;2023-07-29T02:49:39;4.03;;;3.20;;
20910;SDS011;10615;42.702;23.314;2023-07-29T02:50:39;4.40;;;3.42;;
20910;SDS011;10615;42.702;23.314;2023-07-29T02:51:40;6.35;;;3.10;;
20910;SDS011;10615;42.702;23.314;2023-07-29T02:52:40;5.22;;;2.88;;
20910;SDS011;10615;42.702;23.314;2023-07-29T02:53:41;4.38;;;3.17;;
20910;SDS011;10615;42.702;23.314;2023-07-29T02:54:42;4.53;;;3.42;;
20910;SDS011;10615;42.702;23.314;2023-07-29T02:55:43;3.85;;;3.15;;
20910;SDS011;10615;42.702;23.314;2023-07-29T02:56:44;3.08;;;2.78;;
20910;SDS011;10615;42.702;23.314;2023-07-29T02:57:44;4.97;;;3.10;;
20910;SDS011;10615;42.702;23.314;2023-07-29T02:58:45;4.38;;;3.55;;
20910;SDS011;10615;42.702;23.314;2023-07-29T02:59:46;3.53;;;3.22;;
20910;SDS011;10615;42.702;23.314;2023-07-29T03:00:46;6.43;;;3.30;;
20910;SDS011;10615;42.702;23.314;2023-07-29T03:01:48;4.47;;;3.22;;
20910;SDS011;10615;42.702;23.314;2023-07-29T03:02:49;4.65;;;3.45;;
20910;SDS011;10615;42.702;23.314;2023-07-29T03:03:50;4.45;;;3.42;;
20910;SDS011;10615;42.702;23.314;2023-07-29T03:04:51;4.95;;;3.45;;
20910;SDS011;10615;42.702;23.314;2023-07-29T03:05:56;4.85;;;3.55;;
20910;SDS011;10615;42.702;23.314;2023-07-29T03:07:02;5.32;;;3.50;;
20910;SDS011;10615;42.702;23.314;2023-07-29T03:08:03;4.78;;;3.47;;
20910;SDS011;10615;42.702;23.314;2023-07-29T03:09:03;3.95;;;3.38;;
20910;SDS011;10615;42.702;23.314;2023-07-29T03:10:05;5.30;;;3.58;;
20910;SDS011;10615;42.702;23.314;2023-07-29T03:11:07;7.18;;;3.45;;
20910;SDS011;10615;42.702;23.314;2023-07-29T03:12:09;5.88;;;3.40;;
20910;SDS011;10615;42.702;23.314;2023-07-29T03:13:09;3.67;;;3.22;;
20910;SDS011;10615;42.702;23.314;2023-07-29T03:14:10;3.58;;;2.97;;
20910;SDS011;10615;42.702;23.314;2023-07-29T03:15:11;7.68;;;3.63;;
20910;SDS011;10615;42.702;23.314;2023-07-29T03:16:14;3.53;;;3.22;;
20910;SDS011;10615;42.702;23.314;2023-07-29T03:17:16;4.68;;;3.17;;
20910;SDS011;10615;42.702;23.314;2023-07-29T03:18:17;4.72;;;3.70;;
20910;SDS011;10615;42.702;23.314;2023-07-29T03:19:18;5.53;;;3.45;;
20910;SDS011;10615;42.702;23.314;2023-07-29T03:20:19;4.75;;;3.47;;
20910;SDS011;10615;42.702;23.314;2023-07-29T03:21:20;3.90;;;3.00;;
20910;SDS011;10615;42.702;23.314;2023-07-29T03:22:20;4.03;;;3.20;;
20910;SDS011;10615;42.702;23.314;2023-07-29T03:23:21;6.03;;;3.38;;
20910;SDS011;10615;42.702;23.314;2023-07-29T03:24:22;4.57;;;3.40;;
20910;SDS011;10615;42.702;23.314;2023-07-29T03:25:22;4.18;;;3.30;;
20910;SDS011;10615;42.702;23.314;2023-07-29T03:26:23;4.25;;;3.40;;
20910;SDS011;10615;42.702;23.314;2023-07-29T03:27:24;5.13;;;3.65;;
20910;SDS011;10615;42.702;23.314;2023-07-29T03:28:27;4.20;;;3.13;;
20910;SDS011;10615;42.702;23.314;2023-07-29T03:29:29;5.90;;;3.58;;
20910;SDS011;10615;42.702;23.314;2023-07-29T03:30:30;4.80;;;3.20;;
20910;SDS011;10615;42.702;23.314;2023-07-29T03:31:30;5.32;;;3.50;;
20910;SDS011;10615;42.702;23.314;2023-07-29T03:32:31;4.68;;;3.47;;
20910;SDS011;10615;42.702;23.314;2023-07-29T03:33:32;7.05;;;3.58;;
20910;SDS011;10615;42.702;23.314;2023-07-29T03:34:33;4.35;;;3.38;;
20910;SDS011;10615;42.702;23.314;2023-07-29T03:35:33;3.40;;;3.10;;
20910;SDS011;10615;42.702;23.314;2023-07-29T03:36:34;3.95;;;3.13;;
20910;SDS011;10615;42.702;23.314;2023-07-29T03:37:35;4.25;;;3.35;;
20910;SDS011;10615;42.702;23.314;2023-07-29T03:38:35;5.60;;;3.10;;
20910;SDS011;10615;42.702;23.314;2023-07-29T03:39:39;4.53;;;3.35;;
20910;SDS011;10615;42.702;23.314;2023-07-29T03:40:40;5.93;;;3.67;;
20910;SDS011;10615;42.702;23.314;2023-07-29T03:41:41;7.35;;;3.30;;
20910;SDS011;10615;42.702;23.314;2023-07-29T03:42:42;6.88;;;3.25;;
20910;SDS011;10615;42.702;23.314;2023-07-29T03:43:42;6.05;;;3.38;;
20910;SDS011;10615;42.702;23.314;2023-07-29T03:44:43;7.70;;;3.20;;
20910;SDS011;10615;42.702;23.314;2023-07-29T03:45:44;7.38;;;3.40;;
20910;SDS011;10615;42.702;23.314;2023-07-29T03:46:44;5.45;;;3.47;;
20910;SDS011;10615;42.702;23.314;2023-07-29T03:47:45;4.68;;;3.20;;
20910;SDS011;10615;42.702;23.314;2023-07-29T03:48:46;4.38;;;3.50;;
20910;SDS011;10615;42.702;23.314;2023-07-29T03:49:47;4.55;;;3.42;;
20910;SDS011;10615;42.702;23.314;2023-07-29T03:50:47;3.92;;;3.08;;
20910;SDS011;10615;42.702;23.314;2023-07-29T03:51:48;4.32;;;3.40;;
20910;SDS011;10615;42.702;23.314;2023-07-29T03:52:49;4.85;;;3.30;;
20910;SDS011;10615;42.702;23.314;2023-07-29T03:53:50;4.88;;;3.15;;
20910;SDS011;10615;42.702;23.314;2023-07-29T03:54:50;5.38;;;3.67;;
20910;SDS011;10615;42.702;23.314;2023-07-29T03:55:51;4.30;;;3.47;;
20910;SDS011;10615;42.702;23.314;2023-07-29T03:56:52;7.30;;;3.53;;
20910;SDS011;10615;42.702;23.314;2023-07-29T03:57:52;4.63;;;3.20;;
20910;SDS011;10615;42.702;23.314;2023-07-29T03:58:53;3.90;;;3.25;;
20910;SDS011;10615;42.702;23.314;2023-07-29T04:00:02;3.72;;;2.92;;
20910;SDS011;10615;42.702;23.314;2023-07-29T04:01:03;3.67;;;3.00;;
20910;SDS011;10615;42.702;23.314;2023-07-29T04:02:04;4.18;;;3.08;;
20910;SDS011;10615;42.702;23.314;2023-07-29T04:03:05;6.10;;;3.05;;
20910;SDS011;10615;42.702;23.314;2023-07-29T04:04:06;3.63;;;2.88;;
20910;SDS011;10615;42.702;23.314;2023-07-29T04:05:06;5.25;;;3.17;;
20910;SDS011;10615;42.702;23.314;2023-07-29T04:06:10;3.83;;;2.92;;
20910;SDS011;10615;42.702;23.314;2023-07-29T04:07:11;4.53;;;2.97;;
20910;SDS011;10615;42.702;23.314;2023-07-29T04:08:12;3.47;;;3.10;;
20910;SDS011;10615;42.702;23.314;2023-07-29T04:09:12;4.07;;;3.20;;
20910;SDS011;10615;42.702;23.314;2023-07-29T04:10:13;4.55;;;3.13;;
20910;SDS011;10615;42.702;23.314;2023-07-29T04:11:14;4.05;;;3.25;;
20910;SDS011;10615;42.702;23.314;2023-07-29T04:12:15;4.88;;;3.13;;
20910;SDS011;10615;42.702;23.314;2023-07-29T04:13:16;4.50;;;3.30;;
20910;SDS011;10615;42.702;23.314;2023-07-29T04:14:17;3.50;;;2.90;;
20910;SDS011;10615;42.702;23.314;2023-07-29T04:15:18;4.82;;;3.08;;
20910;SDS011;10615;42.702;23.314;2023-07-29T04:16:19;3.60;;;2.67;;
20910;SDS011;10615;42.702;23.314;2023-07-29T04:17:19;3.10;;;2.80;;
20910;SDS011;10615;42.702;23.314;2023-07-29T04:18:20;3.75;;;3.00;;
20910;SDS011;10615;42.702;23.314;2023-07-29T04:19:21;3.65;;;2.95;;
20910;SDS011;10615;42.702;23.314;2023-07-29T04:20:22;6.47;;;3.60;;
20910;SDS011;10615;42.702;23.314;2023-07-29T04:21:22;4.63;;;3.20;;
20910;SDS011;10615;42.702;23.314;2023-07-29T04:22:23;7.47;;;3.42;;
20910;SDS011;10615;42.702;23.314;2023-07-29T04:23:24;4.75;;;3.20;;
20910;SDS011;10615;42.702;23.314;2023-07-29T04:24:24;4.45;;;2.92;;
20910;SDS011;10615;42.702;23.314;2023-07-29T04:25:25;5.00;;;3.30;;
20910;SDS011;10615;42.702;23.314;2023-07-29T04:26:26;6.00;;;3.65;;
20910;SDS011;10615;42.702;23.314;2023-07-29T04:27:26;5.63;;;3.38;;
20910;SDS011;10615;42.702;23.314;2023-07-29T04:28:27;3.72;;;3.33;;
20910;SDS011;10615;42.702;23.314;2023-07-29T04:29:28;4.70;;;3.10;;
20910;SDS011;10615;42.702;23.314;2023-07-29T04:30:29;4.80;;;3.25;;
20910;SDS011;10615;42.702;23.314;2023-07-29T04:31:29;5.35;;;3.22;;
20910;SDS011;10615;42.702;23.314;2023-07-29T04:32:30;4.88;;;3.05;;
20910;SDS011;10615;42.702;23.314;2023-07-29T04:33:31;4.72;;;3.30;;
20910;SDS011;10615;42.702;23.314;2023-07-29T04:34:31;4.18;;;3.47;;
20910;SDS011;10615;42.702;23.314;2023-07-29T04:35:32;6.60;;;3.63;;
20910;SDS011;10615;42.702;23.314;2023-07-29T04:36:33;4.90;;;3.40;;
20910;SDS011;10615;42.702;23.314;2023-07-29T04:37:33;4.75;;;3.25;;
20910;SDS011;10615;42.702;23.314;2023-07-29T04:38:36;10.10;;;3.78;;
20910;SDS011;10615;42.702;23.314;2023-07-29T04:39:37;7.78;;;3.17;;
20910;SDS011;10615;42.702;23.314;2023-07-29T04:40:38;5.20;;;3.50;;
20910;SDS011;10615;42.702;23.314;2023-07-29T04:41:39;5.47;;;3.25;;
20910;SDS011;10615;42.702;23.314;2023-07-29T04:42:39;5.35;;;3.10;;
20910;SDS011;10615;42.702;23.314;2023-07-29T04:43:40;6.97;;;3.40;;
20910;SDS011;10615;42.702;23.314;2023-07-29T04:44:41;4.00;;;3.28;;
20910;SDS011;10615;42.702;23.314;2023-07-29T04:45:44;8.20;;;3.33;;
20910;SDS011;10615;42.702;23.314;2023-07-29T04:46:45;4.93;;;3.38;;
20910;SDS011;10615;42.702;23.314;2023-07-29T04:47:46;5.88;;;3.25;;
20910;SDS011;10615;42.702;23.314;2023-07-29T04:48:46;5.90;;;3.53;;
20910;SDS011;10615;42.702;23.314;2023-07-29T04:49:47;7.53;;;3.33;;
20910;SDS011;10615;42.702;23.314;2023-07-29T04:50:48;5.82;;;3.53;;
20910;SDS011;10615;42.702;23.314;2023-07-29T04:51:48;5.47;;;3.80;;
20910;SDS011;10615;42.702;23.314;2023-07-29T04:52:49;7.10;;;3.60;;
20910;SDS011;10615;42.702;23.314;2023-07-29T04:53:50;5.10;;;3.90;;
20910;SDS011;10615;42.702;23.314;2023-07-29T04:54:50;6.80;;;3.42;;
20910;SDS011;10615;42.702;23.314;2023-07-29T04:55:51;3.88;;;3.47;;
20910;SDS011;10615;42.702;23.314;2023-07-29T04:56:52;4.65;;;3.70;;
20910;SDS011;10615;42.702;23.314;2023-07-29T04:57:52;6.47;;;3.47;;
20910;SDS011;10615;42.702;23.314;2023-07-29T04:58:53;4.57;;;3.35;;
20910;SDS011;10615;42.702;23.314;2023-07-29T04:59:54;7.53;;;3.70;;
20910;SDS011;10615;42.702;23.314;2023-07-29T05:00:55;4.90;;;3.83;;
20910;SDS011;10615;42.702;23.314;2023-07-29T05:01:56;7.15;;;3.63;;
20910;SDS011;10615;42.702;23.314;2023-07-29T05:02:56;4.65;;;3.40;;
20910;SDS011;10615;42.702;23.314;2023-07-29T05:03:57;8.07;;;3.50;;
20910;SDS011;10615;42.702;23.314;2023-07-29T05:04:58;4.50;;;3.60;;
20910;SDS011;10615;42.702;23.314;2023-07-29T05:05:58;4.15;;;3.25;;
20910;SDS011;10615;42.702;23.314;2023-07-29T05:06:59;4.63;;;3.35;;
20910;SDS011;10615;42.702;23.314;2023-07-29T05:08:00;3.13;;;2.90;;
20910;SDS011;10615;42.702;23.314;2023-07-29T05:09:12;6.93;;;3.10;;
20910;SDS011;10615;42.702;23.314;2023-07-29T05:10:16;5.85;;;3.42;;
20910;SDS011;10615;42.702;23.314;2023-07-29T05:11:17;8.35;;;3.35;;
20910;SDS011;10615;42.702;23.314;2023-07-29T05:12:17;5.45;;;3.00;;
20910;SDS011;10615;42.702;23.314;2023-07-29T05:13:18;4.88;;;3.50;;
20910;SDS011;10615;42.702;23.314;2023-07-29T05:14:19;6.85;;;3.55;;
20910;SDS011;10615;42.702;23.314;2023-07-29T05:15:20;5.07;;;3.50;;
20910;SDS011;10615;42.702;23.314;2023-07-29T05:16:21;5.80;;;3.33;;
20910;SDS011;10615;42.702;23.314;2023-07-29T05:17:21;4.50;;;3.45;;
20910;SDS011;10615;42.702;23.314;2023-07-29T05:18:22;4.97;;;3.35;;
20910;SDS011;10615;42.702;23.314;2023-07-29T05:19:23;4.93;;;3.70;;
20910;SDS011;10615;42.702;23.314;2023-07-29T05:20:24;5.07;;;3.53;;
20910;SDS011;10615;42.702;23.314;2023-07-29T05:21:24;6.13;;;3.42;;
20910;SDS011;10615;42.702;23.314;2023-07-29T05:22:25;3.75;;;3.13;;
20910;SDS011;10615;42.702;23.314;2023-07-29T05:23:26;3.92;;;3.53;;
20910;SDS011;10615;42.702;23.314;2023-07-29T05:24:26;4.47;;;3.63;;
20910;SDS011;10615;42.702;23.314;2023-07-29T05:25:27;7.07;;;3.50;;
20910;SDS011;10615;42.702;23.314;2023-07-29T05:26:29;3.90;;;3.50;;
20910;SDS011;10615;42.702;23.314;2023-07-29T05:27:29;5.82;;;3.78;;
20910;SDS011;10615;42.702;23.314;2023-07-29T05:28:30;6.47;;;3.38;;
20910;SDS011;10615;42.702;23.314;2023-07-29T05:29:31;4.80;;;3.45;;
20910;SDS011;10615;42.702;23.314;2023-07-29T05:30:32;5.20;;;3.15;;
20910;SDS011;10615;42.702;23.314;2023-07-29T05:31:37;6.57;;;3.20;;
20910;SDS011;10615;42.702;23.314;2023-07-29T05:32:37;5.00;;;3.20;;
20910;SDS011;10615;42.702;23.314;2023-07-29T05:33:38;4.78;;;3.40;;
20910;SDS011;10615;42.702;23.314;2023-07-29T05:34:39;4.82;;;3.42;;
20910;SDS011;10615;42.702;23.314;2023-07-29T05:35:40;4.45;;;3.33;;
20910;SDS011;10615;42.702;23.314;2023-07-29T05:36:40;4.38;;;3.47;;
20910;SDS011;10615;42.702;23.314;2023-07-29T05:37:41;6.10;;;3.20;;
20910;SDS011;10615;42.702;23.314;2023-07-29T05:38:42;4.75;;;3.53;;
20910;SDS011;10615;42.702;23.314;2023-07-29T05:39:42;4.95;;;3.58;;
20910;SDS011;10615;42.702;23.314;2023-07-29T05:40:43;4.18;;;3.55;;
20910;SDS011;10615;42.702;23.314;2023-07-29T05:41:44;6.82;;;3.70;;
20910;SDS011;10615;42.702;23.314;2023-07-29T05:42:45;4.55;;;3.50;;
20910;SDS011;10615;42.702;23.314;2023-07-29T05:43:47;3.60;;;3.30;;
20910;SDS011;10615;42.702;23.314;2023-07-29T05:44:48;6.85;;;4.03;;
20910;SDS011;10615;42.702;23.314;2023-07-29T05:45:49;5.65;;;3.60;;
20910;SDS011;10615;42.702;23.314;2023-07-29T05:46:50;4.85;;;3.60;;
20910;SDS011;10615;42.702;23.314;2023-07-29T05:47:51;4.40;;;4.07;;
20910;SDS011;10615;42.702;23.314;2023-07-29T05:48:52;6.68;;;4.05;;
20910;SDS011;10615;42.702;23.314;2023-07-29T05:49:53;6.82;;;4.15;;
20910;SDS011;10615;42.702;23.314;2023-07-29T05:50:54;6.15;;;3.83;;
20910;SDS011;10615;42.702;23.314;2023-07-29T05:51:55;4.78;;;3.75;;
20910;SDS011;10615;42.702;23.314;2023-07-29T05:52:56;7.07;;;4.25;;
20910;SDS011;10615;42.702;23.314;2023-07-29T05:53:56;5.40;;;4.30;;
20910;SDS011;10615;42.702;23.314;2023-07-29T05:54:57;9.18;;;4.10;;
20910;SDS011;10615;42.702;23.314;2023-07-29T05:55:58;5.53;;;4.15;;
20910;SDS011;10615;42.702;23.314;2023-07-29T05:56:59;6.03;;;3.90;;
20910;SDS011;10615;42.702;23.314;2023-07-29T05:57:59;5.22;;;3.90;;
20910;SDS011;10615;42.702;23.314;2023-07-29T05:59:00;5.72;;;4.30;;
20910;SDS011;10615;42.702;23.314;2023-07-29T06:00:01;4.82;;;4.25;;
20910;SDS011;10615;42.702;23.314;2023-07-29T06:01:01;9.15;;;4.50;;
20910;SDS011;10615;42.702;23.314;2023-07-29T06:02:02;7.72;;;4.43;;
20910;SDS011;10615;42.702;23.314;2023-07-29T06:03:03;7.20;;;4.38;;
20910;SDS011;10615;42.702;23.314;2023-07-29T06:04:03;6.35;;;4.80;;
20910;SDS011;10615;42.702;23.314;2023-07-29T06:05:04;6.97;;;4.60;;
20910;SDS011;10615;42.702;23.314;2023-07-29T06:06:05;6.68;;;4.60;;
20910;SDS011;10615;42.702;23.314;2023-07-29T06:07:06;8.23;;;5.00;;
20910;SDS011;10615;42.702;23.314;2023-07-29T06:08:07;5.20;;;4.55;;
20910;SDS011;10615;42.702;23.314;2023-07-29T06:09:08;6.63;;;4.20;;
20910;SDS011;10615;42.702;23.314;2023-07-29T06:10:09;7.20;;;4.70;;
20910;SDS011;10615;42.702;23.314;2023-07-29T06:11:12;5.80;;;4.45;;